sensor_id;sensor_type;location;lat;lon;timestamp;P1;durP1;ratioP1;P2;durP2;ratioP2
84353;SDS011;74538;43.522;1.516;2024-01-16T00:00:31;3.33;;;1.60;;
84353;SDS011;74538;43.522;1.516;2024-01-16T00:02:57;3.67;;;1.83;;
84353;SDS011;74538;43.522;1.516;2024-01-16T00:05:22;3.90;;;1.70;;
84353;SDS011;74538;43.522;1.516;2024-01-16T00:07:48;3.50;;;2.03;;
84353;SDS011;74538;43.522;1.516;2024-01-16T00:10:14;3.15;;;1.55;;
84353;SDS011;74538;43.522;1.516;2024-01-16T00:12:39;2.80;;;1.47;;
84353;SDS011;74538;43.522;1.516;2024-01-16T00:15:06;3.50;;;1.50;;
84353;SDS011;74538;43.522;1.516;2024-01-16T00:17:32;3.30;;;1.70;;
84353;SDS011;74538;43.522;1.516;2024-01-16T00:19:57;3.30;;;1.63;;
84353;SDS011;74538;43.522;1.516;2024-01-16T00:22:28;3.10;;;1.47;;
84353;SDS011;74538;43.522;1.516;2024-01-16T00:24:54;3.42;;;1.73;;
84353;SDS011;74538;43.522;1.516;2024-01-16T00:27:19;3.75;;;1.85;;
84353;SDS011;74538;43.522;1.516;2024-01-16T00:29:45;3.30;;;1.60;;
84353;SDS011;74538;43.522;1.516;2024-01-16T00:32:10;3.33;;;1.63;;
84353;SDS011;74538;43.522;1.516;2024-01-16T00:34:36;3.70;;;1.80;;
84353;SDS011;74538;43.522;1.516;2024-01-16T00:37:01;3.40;;;1.70;;
84353;SDS011;74538;43.522;1.516;2024-01-16T00:39:26;3.42;;;1.50;;
84353;SDS011;74538;43.522;1.516;2024-01-16T00:41:52;3.47;;;1.63;;
84353;SDS011;74538;43.522;1.516;2024-01-16T00:44:17;3.30;;;1.77;;
84353;SDS011;74538;43.522;1.516;2024-01-16T00:46:43;3.83;;;1.65;;
84353;SDS011;74538;43.522;1.516;2024-01-16T00:49:08;3.30;;;1.93;;
84353;SDS011;74538;43.522;1.516;2024-01-16T00:51:34;3.10;;;1.60;;
84353;SDS011;74538;43.522;1.516;2024-01-16T00:54:00;3.22;;;1.80;;
84353;SDS011;74538;43.522;1.516;2024-01-16T00:56:25;2.87;;;1.43;;
84353;SDS011;74538;43.522;1.516;2024-01-16T00:58:52;3.13;;;1.60;;
84353;SDS011;74538;43.522;1.516;2024-01-16T01:01:19;2.90;;;1.40;;
84353;SDS011;74538;43.522;1.516;2024-01-16T01:03:44;4.47;;;1.60;;
84353;SDS011;74538;43.522;1.516;2024-01-16T01:06:10;3.00;;;1.57;;
84353;SDS011;74538;43.522;1.516;2024-01-16T01:08:36;3.00;;;1.50;;
84353;SDS011;74538;43.522;1.516;2024-01-16T01:11:02;2.90;;;1.40;;
84353;SDS011;74538;43.522;1.516;2024-01-16T01:13:28;2.90;;;1.33;;
84353;SDS011;74538;43.522;1.516;2024-01-16T01:15:53;3.30;;;1.50;;
84353;SDS011;74538;43.522;1.516;2024-01-16T01:18:19;2.80;;;1.40;;
84353;SDS011;74538;43.522;1.516;2024-01-16T01:20:44;3.10;;;1.37;;
84353;SDS011;74538;43.522;1.516;2024-01-16T01:23:10;3.00;;;1.53;;
84353;SDS011;74538;43.522;1.516;2024-01-16T01:25:35;3.55;;;1.80;;
84353;SDS011;74538;43.522;1.516;2024-01-16T01:28:01;3.00;;;1.20;;
84353;SDS011;74538;43.522;1.516;2024-01-16T01:30:26;3.17;;;1.20;;
84353;SDS011;74538;43.522;1.516;2024-01-16T01:32:52;3.23;;;1.30;;
84353;SDS011;74538;43.522;1.516;2024-01-16T01:35:17;2.80;;;1.50;;
84353;SDS011;74538;43.522;1.516;2024-01-16T01:37:45;3.65;;;1.40;;
84353;SDS011;74538;43.522;1.516;2024-01-16T01:40:10;3.87;;;1.57;;
84353;SDS011;74538;43.522;1.516;2024-01-16T01:42:37;2.72;;;1.13;;
84353;SDS011;74538;43.522;1.516;2024-01-16T01:45:03;4.33;;;1.50;;
84353;SDS011;74538;43.522;1.516;2024-01-16T01:47:29;3.63;;;1.40;;
84353;SDS011;74538;43.522;1.516;2024-01-16T01:49:55;3.13;;;1.33;;
84353;SDS011;74538;43.522;1.516;2024-01-16T01:52:21;3.33;;;1.53;;
84353;SDS011;74538;43.522;1.516;2024-01-16T01:54:46;3.38;;;1.42;;
84353;SDS011;74538;43.522;1.516;2024-01-16T01:57:12;2.93;;;1.23;;
84353;SDS011;74538;43.522;1.516;2024-01-16T01:59:38;2.95;;;1.30;;
84353;SDS011;74538;43.522;1.516;2024-01-16T02:02:03;3.27;;;1.37;;
84353;SDS011;74538;43.522;1.516;2024-01-16T02:04:29;3.10;;;1.20;;
84353;SDS011;74538;43.522;1.516;2024-01-16T02:06:56;3.22;;;1.58;;
84353;SDS011;74538;43.522;1.516;2024-01-16T02:09:23;2.77;;;1.20;;
84353;SDS011;74538;43.522;1.516;2024-01-16T02:11:48;2.90;;;1.55;;
84353;SDS011;74538;43.522;1.516;2024-01-16T02:14:14;3.10;;;1.60;;
84353;SDS011;74538;43.522;1.516;2024-01-16T02:16:40;2.73;;;1.10;;
84353;SDS011;74538;43.522;1.516;2024-01-16T02:19:07;2.72;;;1.20;;
84353;SDS011;74538;43.522;1.516;2024-01-16T02:24:07;3.22;;;1.30;;
84353;SDS011;74538;43.522;1.516;2024-01-16T02:26:33;2.70;;;1.30;;
84353;SDS011;74538;43.522;1.516;2024-01-16T02:29:00;3.05;;;1.20;;
84353;SDS011;74538;43.522;1.516;2024-01-16T02:31:27;2.77;;;1.10;;
84353;SDS011;74538;43.522;1.516;2024-01-16T02:33:52;2.55;;;1.17;;
84353;SDS011;74538;43.522;1.516;2024-01-16T02:36:18;2.90;;;1.10;;
84353;SDS011;74538;43.522;1.516;2024-01-16T02:38:43;2.67;;;1.23;;
84353;SDS011;74538;43.522;1.516;2024-01-16T02:41:09;2.58;;;1.20;;
84353;SDS011;74538;43.522;1.516;2024-01-16T02:43:35;3.13;;;1.20;;
84353;SDS011;74538;43.522;1.516;2024-01-16T02:46:00;3.25;;;1.25;;
84353;SDS011;74538;43.522;1.516;2024-01-16T02:48:25;2.70;;;1.17;;
84353;SDS011;74538;43.522;1.516;2024-01-16T02:50:51;3.10;;;1.40;;
84353;SDS011;74538;43.522;1.516;2024-01-16T02:53:16;2.57;;;1.20;;
84353;SDS011;74538;43.522;1.516;2024-01-16T02:55:42;2.70;;;1.30;;
84353;SDS011;74538;43.522;1.516;2024-01-16T02:58:07;2.40;;;1.00;;
84353;SDS011;74538;43.522;1.516;2024-01-16T03:00:32;3.30;;;1.50;;
84353;SDS011;74538;43.522;1.516;2024-01-16T03:02:58;2.47;;;1.20;;
84353;SDS011;74538;43.522;1.516;2024-01-16T03:05:23;2.73;;;1.30;;
84353;SDS011;74538;43.522;1.516;2024-01-16T03:07:49;2.55;;;1.10;;
84353;SDS011;74538;43.522;1.516;2024-01-16T03:10:14;2.97;;;1.20;;
84353;SDS011;74538;43.522;1.516;2024-01-16T03:12:40;2.67;;;1.10;;
84353;SDS011;74538;43.522;1.516;2024-01-16T03:15:05;3.50;;;1.10;;
84353;SDS011;74538;43.522;1.516;2024-01-16T03:17:31;2.50;;;1.10;;
84353;SDS011;74538;43.522;1.516;2024-01-16T03:19:56;2.87;;;1.10;;
84353;SDS011;74538;43.522;1.516;2024-01-16T03:22:22;2.83;;;1.00;;
84353;SDS011;74538;43.522;1.516;2024-01-16T03:24:49;2.78;;;1.30;;
84353;SDS011;74538;43.522;1.516;2024-01-16T03:27:15;3.53;;;1.52;;
84353;SDS011;74538;43.522;1.516;2024-01-16T03:29:40;2.67;;;1.30;;
84353;SDS011;74538;43.522;1.516;2024-01-16T03:32:05;2.97;;;1.27;;
84353;SDS011;74538;43.522;1.516;2024-01-16T03:34:31;2.60;;;1.05;;
84353;SDS011;74538;43.522;1.516;2024-01-16T03:36:57;2.70;;;1.40;;
84353;SDS011;74538;43.522;1.516;2024-01-16T03:39:22;2.28;;;0.90;;
84353;SDS011;74538;43.522;1.516;2024-01-16T03:41:48;2.60;;;1.20;;
84353;SDS011;74538;43.522;1.516;2024-01-16T03:44:13;2.70;;;1.10;;
84353;SDS011;74538;43.522;1.516;2024-01-16T03:46:38;3.20;;;1.20;;
84353;SDS011;74538;43.522;1.516;2024-01-16T03:49:04;3.00;;;1.20;;
84353;SDS011;74538;43.522;1.516;2024-01-16T03:51:29;2.60;;;1.10;;
84353;SDS011;74538;43.522;1.516;2024-01-16T03:53:55;2.73;;;1.10;;
84353;SDS011;74538;43.522;1.516;2024-01-16T03:56:20;2.50;;;1.30;;
84353;SDS011;74538;43.522;1.516;2024-01-16T03:58:47;2.85;;;1.30;;
84353;SDS011;74538;43.522;1.516;2024-01-16T04:01:13;3.27;;;1.20;;
84353;SDS011;74538;43.522;1.516;2024-01-16T04:03:39;3.00;;;1.30;;
84353;SDS011;74538;43.522;1.516;2024-01-16T04:06:17;2.70;;;1.20;;
84353;SDS011;74538;43.522;1.516;2024-01-16T04:08:43;2.67;;;0.97;;
84353;SDS011;74538;43.522;1.516;2024-01-16T04:11:13;2.70;;;1.30;;
84353;SDS011;74538;43.522;1.516;2024-01-16T04:13:39;2.65;;;1.38;;
84353;SDS011;74538;43.522;1.516;2024-01-16T04:16:05;2.90;;;1.20;;
84353;SDS011;74538;43.522;1.516;2024-01-16T04:18:34;2.67;;;1.40;;
84353;SDS011;74538;43.522;1.516;2024-01-16T04:21:01;3.60;;;1.50;;
84353;SDS011;74538;43.522;1.516;2024-01-16T04:23:27;2.50;;;1.10;;
84353;SDS011;74538;43.522;1.516;2024-01-16T04:25:52;2.70;;;1.10;;
84353;SDS011;74538;43.522;1.516;2024-01-16T04:28:17;2.33;;;1.00;;
84353;SDS011;74538;43.522;1.516;2024-01-16T04:30:44;2.67;;;1.30;;
84353;SDS011;74538;43.522;1.516;2024-01-16T04:33:09;2.95;;;1.20;;
84353;SDS011;74538;43.522;1.516;2024-01-16T04:35:34;2.80;;;1.00;;
84353;SDS011;74538;43.522;1.516;2024-01-16T04:38:00;3.43;;;1.20;;
84353;SDS011;74538;43.522;1.516;2024-01-16T04:40:25;2.40;;;1.13;;
84353;SDS011;74538;43.522;1.516;2024-01-16T04:42:50;2.90;;;1.40;;
84353;SDS011;74538;43.522;1.516;2024-01-16T04:45:16;3.10;;;1.30;;
84353;SDS011;74538;43.522;1.516;2024-01-16T04:47:41;3.20;;;1.20;;
84353;SDS011;74538;43.522;1.516;2024-01-16T04:50:07;2.90;;;1.43;;
84353;SDS011;74538;43.522;1.516;2024-01-16T04:52:33;2.63;;;1.20;;
84353;SDS011;74538;43.522;1.516;2024-01-16T04:54:58;2.77;;;1.07;;
84353;SDS011;74538;43.522;1.516;2024-01-16T04:57:24;3.13;;;1.30;;
84353;SDS011;74538;43.522;1.516;2024-01-16T04:59:49;2.80;;;1.38;;
84353;SDS011;74538;43.522;1.516;2024-01-16T05:02:15;2.60;;;1.10;;
84353;SDS011;74538;43.522;1.516;2024-01-16T05:04:42;2.60;;;1.20;;
84353;SDS011;74538;43.522;1.516;2024-01-16T05:07:07;2.90;;;1.10;;
84353;SDS011;74538;43.522;1.516;2024-01-16T05:09:33;2.70;;;1.30;;
84353;SDS011;74538;43.522;1.516;2024-01-16T05:11:58;2.70;;;1.17;;
84353;SDS011;74538;43.522;1.516;2024-01-16T05:14:24;2.83;;;1.37;;
84353;SDS011;74538;43.522;1.516;2024-01-16T05:16:50;2.63;;;1.08;;
84353;SDS011;74538;43.522;1.516;2024-01-16T05:19:16;2.47;;;1.00;;
84353;SDS011;74538;43.522;1.516;2024-01-16T05:21:42;2.50;;;1.17;;
84353;SDS011;74538;43.522;1.516;2024-01-16T05:24:07;2.70;;;1.20;;
84353;SDS011;74538;43.522;1.516;2024-01-16T05:26:33;2.72;;;1.30;;
84353;SDS011;74538;43.522;1.516;2024-01-16T05:28:58;2.80;;;1.20;;
84353;SDS011;74538;43.522;1.516;2024-01-16T05:31:24;3.07;;;1.13;;
84353;SDS011;74538;43.522;1.516;2024-01-16T05:33:49;2.50;;;1.15;;
84353;SDS011;74538;43.522;1.516;2024-01-16T05:36:15;2.47;;;1.20;;
84353;SDS011;74538;43.522;1.516;2024-01-16T05:38:40;2.80;;;1.10;;
84353;SDS011;74538;43.522;1.516;2024-01-16T05:41:06;2.33;;;1.02;;
84353;SDS011;74538;43.522;1.516;2024-01-16T05:43:31;2.60;;;1.03;;
84353;SDS011;74538;43.522;1.516;2024-01-16T05:45:57;2.73;;;1.30;;
84353;SDS011;74538;43.522;1.516;2024-01-16T05:48:22;2.70;;;1.40;;
84353;SDS011;74538;43.522;1.516;2024-01-16T05:50:48;2.43;;;1.17;;
84353;SDS011;74538;43.522;1.516;2024-01-16T05:53:13;2.53;;;1.10;;
84353;SDS011;74538;43.522;1.516;2024-01-16T05:55:38;2.83;;;1.20;;
84353;SDS011;74538;43.522;1.516;2024-01-16T05:58:04;2.50;;;1.20;;
84353;SDS011;74538;43.522;1.516;2024-01-16T06:00:30;2.40;;;1.07;;
84353;SDS011;74538;43.522;1.516;2024-01-16T06:02:55;2.90;;;1.10;;
84353;SDS011;74538;43.522;1.516;2024-01-16T06:05:21;2.70;;;1.00;;
84353;SDS011;74538;43.522;1.516;2024-01-16T06:07:46;2.60;;;1.30;;
84353;SDS011;74538;43.522;1.516;2024-01-16T06:10:12;2.50;;;1.30;;
84353;SDS011;74538;43.522;1.516;2024-01-16T06:12:38;2.95;;;1.05;;
84353;SDS011;74538;43.522;1.516;2024-01-16T06:15:04;2.43;;;1.10;;
84353;SDS011;74538;43.522;1.516;2024-01-16T06:17:30;2.78;;;1.30;;
84353;SDS011;74538;43.522;1.516;2024-01-16T06:19:55;2.10;;;0.90;;
84353;SDS011;74538;43.522;1.516;2024-01-16T06:22:20;2.50;;;1.10;;
84353;SDS011;74538;43.522;1.516;2024-01-16T06:24:46;2.60;;;1.10;;
84353;SDS011;74538;43.522;1.516;2024-01-16T06:27:11;2.47;;;1.20;;
84353;SDS011;74538;43.522;1.516;2024-01-16T06:29:44;2.67;;;1.00;;
84353;SDS011;74538;43.522;1.516;2024-01-16T06:32:10;2.75;;;1.13;;
84353;SDS011;74538;43.522;1.516;2024-01-16T06:34:35;2.73;;;1.20;;
84353;SDS011;74538;43.522;1.516;2024-01-16T06:37:00;3.37;;;1.30;;
84353;SDS011;74538;43.522;1.516;2024-01-16T06:39:26;2.97;;;1.00;;
84353;SDS011;74538;43.522;1.516;2024-01-16T06:41:51;2.55;;;1.10;;
84353;SDS011;74538;43.522;1.516;2024-01-16T06:44:18;2.37;;;1.10;;
84353;SDS011;74538;43.522;1.516;2024-01-16T06:46:43;2.60;;;1.10;;
84353;SDS011;74538;43.522;1.516;2024-01-16T06:49:09;2.50;;;1.10;;
84353;SDS011;74538;43.522;1.516;2024-01-16T06:51:35;2.47;;;1.10;;
84353;SDS011;74538;43.522;1.516;2024-01-16T06:54:00;2.27;;;1.03;;
84353;SDS011;74538;43.522;1.516;2024-01-16T06:56:26;2.73;;;1.10;;
84353;SDS011;74538;43.522;1.516;2024-01-16T06:58:51;3.22;;;1.10;;
84353;SDS011;74538;43.522;1.516;2024-01-16T07:01:17;2.10;;;1.00;;
84353;SDS011;74538;43.522;1.516;2024-01-16T07:03:43;2.50;;;1.20;;
84353;SDS011;74538;43.522;1.516;2024-01-16T07:06:09;3.00;;;1.10;;
84353;SDS011;74538;43.522;1.516;2024-01-16T07:08:34;2.40;;;1.00;;
84353;SDS011;74538;43.522;1.516;2024-01-16T07:11:00;2.30;;;1.10;;
84353;SDS011;74538;43.522;1.516;2024-01-16T07:13:26;2.30;;;1.00;;
84353;SDS011;74538;43.522;1.516;2024-01-16T07:15:51;2.47;;;1.10;;
84353;SDS011;74538;43.522;1.516;2024-01-16T07:18:17;2.30;;;0.90;;
84353;SDS011;74538;43.522;1.516;2024-01-16T07:20:43;2.70;;;0.90;;
84353;SDS011;74538;43.522;1.516;2024-01-16T07:23:10;2.47;;;1.10;;
84353;SDS011;74538;43.522;1.516;2024-01-16T07:25:36;2.77;;;1.13;;
84353;SDS011;74538;43.522;1.516;2024-01-16T07:28:01;2.20;;;1.00;;
84353;SDS011;74538;43.522;1.516;2024-01-16T07:30:27;2.60;;;1.30;;
84353;SDS011;74538;43.522;1.516;2024-01-16T07:32:53;2.77;;;1.07;;
84353;SDS011;74538;43.522;1.516;2024-01-16T07:35:18;2.92;;;1.55;;
84353;SDS011;74538;43.522;1.516;2024-01-16T07:37:44;2.40;;;1.00;;
84353;SDS011;74538;43.522;1.516;2024-01-16T07:40:10;2.60;;;1.30;;
84353;SDS011;74538;43.522;1.516;2024-01-16T07:42:37;3.28;;;1.10;;
84353;SDS011;74538;43.522;1.516;2024-01-16T07:45:03;2.40;;;0.90;;
84353;SDS011;74538;43.522;1.516;2024-01-16T07:47:30;2.47;;;1.00;;
84353;SDS011;74538;43.522;1.516;2024-01-16T07:49:56;2.40;;;0.90;;
84353;SDS011;74538;43.522;1.516;2024-01-16T07:52:22;2.38;;;1.08;;
84353;SDS011;74538;43.522;1.516;2024-01-16T07:54:47;3.40;;;1.33;;
84353;SDS011;74538;43.522;1.516;2024-01-16T07:57:13;6.15;;;1.30;;
84353;SDS011;74538;43.522;1.516;2024-01-16T07:59:38;5.70;;;1.57;;
84353;SDS011;74538;43.522;1.516;2024-01-16T08:02:05;4.03;;;1.40;;
84353;SDS011;74538;43.522;1.516;2024-01-16T08:04:31;4.60;;;1.30;;
84353;SDS011;74538;43.522;1.516;2024-01-16T08:06:57;5.00;;;1.13;;
84353;SDS011;74538;43.522;1.516;2024-01-16T08:09:24;7.93;;;1.43;;
84353;SDS011;74538;43.522;1.516;2024-01-16T08:11:50;7.78;;;1.40;;
84353;SDS011;74538;43.522;1.516;2024-01-16T08:14:15;3.93;;;1.30;;
84353;SDS011;74538;43.522;1.516;2024-01-16T08:16:41;3.53;;;1.20;;
84353;SDS011;74538;43.522;1.516;2024-01-16T08:19:06;3.90;;;1.30;;
84353;SDS011;74538;43.522;1.516;2024-01-16T08:21:32;4.20;;;1.27;;
84353;SDS011;74538;43.522;1.516;2024-01-16T08:23:58;4.67;;;1.17;;
84353;SDS011;74538;43.522;1.516;2024-01-16T08:26:23;8.10;;;1.47;;
84353;SDS011;74538;43.522;1.516;2024-01-16T08:28:49;4.73;;;1.20;;
84353;SDS011;74538;43.522;1.516;2024-01-16T08:31:19;4.22;;;1.23;;
84353;SDS011;74538;43.522;1.516;2024-01-16T08:33:44;4.67;;;1.20;;
84353;SDS011;74538;43.522;1.516;2024-01-16T08:36:10;3.67;;;1.17;;
84353;SDS011;74538;43.522;1.516;2024-01-16T08:38:36;4.67;;;1.33;;
84353;SDS011;74538;43.522;1.516;2024-01-16T08:41:01;6.30;;;1.50;;
84353;SDS011;74538;43.522;1.516;2024-01-16T08:43:28;5.97;;;1.52;;
84353;SDS011;74538;43.522;1.516;2024-01-16T08:45:53;19.47;;;2.80;;
84353;SDS011;74538;43.522;1.516;2024-01-16T08:48:19;10.27;;;1.67;;
84353;SDS011;74538;43.522;1.516;2024-01-16T08:50:44;9.70;;;1.70;;
84353;SDS011;74538;43.522;1.516;2024-01-16T08:53:10;7.90;;;1.67;;
84353;SDS011;74538;43.522;1.516;2024-01-16T08:55:35;5.80;;;1.47;;
84353;SDS011;74538;43.522;1.516;2024-01-16T08:58:01;6.03;;;1.45;;
84353;SDS011;74538;43.522;1.516;2024-01-16T09:00:26;6.73;;;1.57;;
84353;SDS011;74538;43.522;1.516;2024-01-16T09:02:52;6.63;;;1.90;;
84353;SDS011;74538;43.522;1.516;2024-01-16T09:05:17;6.07;;;1.50;;
84353;SDS011;74538;43.522;1.516;2024-01-16T09:07:43;6.30;;;1.33;;
84353;SDS011;74538;43.522;1.516;2024-01-16T09:10:08;5.63;;;1.70;;
84353;SDS011;74538;43.522;1.516;2024-01-16T09:12:34;4.93;;;1.15;;
84353;SDS011;74538;43.522;1.516;2024-01-16T09:14:59;3.97;;;1.20;;
84353;SDS011;74538;43.522;1.516;2024-01-16T09:17:25;7.33;;;1.83;;
84353;SDS011;74538;43.522;1.516;2024-01-16T09:19:51;5.07;;;1.33;;
84353;SDS011;74538;43.522;1.516;2024-01-16T09:22:17;7.03;;;1.47;;
84353;SDS011;74538;43.522;1.516;2024-01-16T09:24:43;6.35;;;1.33;;
84353;SDS011;74538;43.522;1.516;2024-01-16T09:27:08;4.57;;;1.40;;
84353;SDS011;74538;43.522;1.516;2024-01-16T09:29:35;3.20;;;1.10;;
84353;SDS011;74538;43.522;1.516;2024-01-16T09:32:01;7.18;;;1.35;;
84353;SDS011;74538;43.522;1.516;2024-01-16T09:34:26;6.13;;;1.25;;
84353;SDS011;74538;43.522;1.516;2024-01-16T09:36:52;4.73;;;1.40;;
84353;SDS011;74538;43.522;1.516;2024-01-16T09:39:18;2.92;;;1.00;;
84353;SDS011;74538;43.522;1.516;2024-01-16T09:41:46;3.97;;;1.30;;
84353;SDS011;74538;43.522;1.516;2024-01-16T09:44:12;4.35;;;1.38;;
84353;SDS011;74538;43.522;1.516;2024-01-16T09:46:37;4.83;;;1.50;;
84353;SDS011;74538;43.522;1.516;2024-01-16T09:49:03;4.47;;;1.40;;
84353;SDS011;74538;43.522;1.516;2024-01-16T09:51:29;4.10;;;1.20;;
84353;SDS011;74538;43.522;1.516;2024-01-16T09:53:55;5.80;;;1.40;;
84353;SDS011;74538;43.522;1.516;2024-01-16T09:56:22;3.45;;;1.35;;
84353;SDS011;74538;43.522;1.516;2024-01-16T09:58:49;8.47;;;1.60;;
84353;SDS011;74538;43.522;1.516;2024-01-16T10:01:18;2.65;;;1.10;;
84353;SDS011;74538;43.522;1.516;2024-01-16T10:03:44;3.03;;;1.15;;
84353;SDS011;74538;43.522;1.516;2024-01-16T10:06:10;3.17;;;1.25;;
84353;SDS011;74538;43.522;1.516;2024-01-16T10:08:37;3.60;;;1.55;;
84353;SDS011;74538;43.522;1.516;2024-01-16T10:11:03;3.10;;;1.20;;
84353;SDS011;74538;43.522;1.516;2024-01-16T10:13:28;3.22;;;1.48;;
84353;SDS011;74538;43.522;1.516;2024-01-16T10:15:54;3.67;;;1.20;;
84353;SDS011;74538;43.522;1.516;2024-01-16T10:18:24;4.13;;;1.30;;
84353;SDS011;74538;43.522;1.516;2024-01-16T10:20:55;3.08;;;1.20;;
84353;SDS011;74538;43.522;1.516;2024-01-16T10:26:07;4.15;;;1.02;;
84353;SDS011;74538;43.522;1.516;2024-01-16T10:28:35;2.60;;;0.90;;
84353;SDS011;74538;43.522;1.516;2024-01-16T10:31:05;4.15;;;1.10;;
84353;SDS011;74538;43.522;1.516;2024-01-16T10:33:40;2.80;;;1.25;;
84353;SDS011;74538;43.522;1.516;2024-01-16T10:36:09;2.92;;;1.30;;
84353;SDS011;74538;43.522;1.516;2024-01-16T10:38:35;2.93;;;1.10;;
84353;SDS011;74538;43.522;1.516;2024-01-16T10:41:05;2.80;;;1.10;;
84353;SDS011;74538;43.522;1.516;2024-01-16T10:43:33;3.85;;;1.38;;
84353;SDS011;74538;43.522;1.516;2024-01-16T10:46:06;4.37;;;1.03;;
84353;SDS011;74538;43.522;1.516;2024-01-16T10:48:33;2.83;;;0.93;;
84353;SDS011;74538;43.522;1.516;2024-01-16T10:50:58;2.40;;;0.93;;
84353;SDS011;74538;43.522;1.516;2024-01-16T10:53:24;2.65;;;0.95;;
84353;SDS011;74538;43.522;1.516;2024-01-16T10:55:52;2.97;;;1.20;;
84353;SDS011;74538;43.522;1.516;2024-01-16T10:58:22;2.75;;;1.00;;
84353;SDS011;74538;43.522;1.516;2024-01-16T11:00:50;3.50;;;1.20;;
84353;SDS011;74538;43.522;1.516;2024-01-16T11:06:15;4.03;;;1.30;;
84353;SDS011;74538;43.522;1.516;2024-01-16T11:08:42;2.60;;;1.07;;
84353;SDS011;74538;43.522;1.516;2024-01-16T11:11:11;3.67;;;1.48;;
84353;SDS011;74538;43.522;1.516;2024-01-16T11:13:38;4.15;;;1.50;;
84353;SDS011;74538;43.522;1.516;2024-01-16T11:16:05;2.80;;;1.10;;
84353;SDS011;74538;43.522;1.516;2024-01-16T11:18:32;3.10;;;1.25;;
84353;SDS011;74538;43.522;1.516;2024-01-16T11:20:58;3.50;;;1.30;;
84353;SDS011;74538;43.522;1.516;2024-01-16T11:23:25;3.33;;;1.30;;
84353;SDS011;74538;43.522;1.516;2024-01-16T11:25:50;3.03;;;1.63;;
84353;SDS011;74538;43.522;1.516;2024-01-16T11:28:16;3.63;;;1.53;;
84353;SDS011;74538;43.522;1.516;2024-01-16T11:30:42;3.43;;;1.50;;
84353;SDS011;74538;43.522;1.516;2024-01-16T11:33:41;3.42;;;1.23;;
84353;SDS011;74538;43.522;1.516;2024-01-16T11:36:04;3.13;;;1.30;;
84353;SDS011;74538;43.522;1.516;2024-01-16T11:38:31;3.23;;;1.50;;
84353;SDS011;74538;43.522;1.516;2024-01-16T11:40:58;2.97;;;1.20;;
84353;SDS011;74538;43.522;1.516;2024-01-16T11:46:07;3.07;;;1.40;;
84353;SDS011;74538;43.522;1.516;2024-01-16T11:48:33;2.78;;;1.42;;
84353;SDS011;74538;43.522;1.516;2024-01-16T11:51:00;4.43;;;1.58;;
84353;SDS011;74538;43.522;1.516;2024-01-16T11:53:35;3.20;;;1.67;;
84353;SDS011;74538;43.522;1.516;2024-01-16T12:01:52;2.83;;;1.80;;
84353;SDS011;74538;43.522;1.516;2024-01-16T12:04:22;2.70;;;1.30;;
84353;SDS011;74538;43.522;1.516;2024-01-16T12:06:57;3.03;;;1.53;;
84353;SDS011;74538;43.522;1.516;2024-01-16T12:09:25;2.88;;;1.30;;
84353;SDS011;74538;43.522;1.516;2024-01-16T12:11:59;4.30;;;1.40;;
84353;SDS011;74538;43.522;1.516;2024-01-16T12:14:26;3.55;;;1.60;;
84353;SDS011;74538;43.522;1.516;2024-01-16T12:16:52;3.10;;;1.40;;
84353;SDS011;74538;43.522;1.516;2024-01-16T12:19:18;2.63;;;1.10;;
84353;SDS011;74538;43.522;1.516;2024-01-16T12:21:44;3.37;;;1.30;;
84353;SDS011;74538;43.522;1.516;2024-01-16T12:24:10;3.55;;;1.48;;
84353;SDS011;74538;43.522;1.516;2024-01-16T12:26:36;3.50;;;1.17;;
84353;SDS011;74538;43.522;1.516;2024-01-16T12:29:02;2.97;;;1.27;;
84353;SDS011;74538;43.522;1.516;2024-01-16T12:31:28;3.77;;;1.60;;
84353;SDS011;74538;43.522;1.516;2024-01-16T12:34:06;2.55;;;1.10;;
84353;SDS011;74538;43.522;1.516;2024-01-16T12:36:33;3.25;;;1.40;;
84353;SDS011;74538;43.522;1.516;2024-01-16T12:38:59;3.13;;;1.33;;
84353;SDS011;74538;43.522;1.516;2024-01-16T12:41:24;2.88;;;1.40;;
84353;SDS011;74538;43.522;1.516;2024-01-16T12:43:52;3.17;;;1.43;;
84353;SDS011;74538;43.522;1.516;2024-01-16T12:46:18;3.22;;;1.20;;
84353;SDS011;74538;43.522;1.516;2024-01-16T12:48:44;2.93;;;1.30;;
84353;SDS011;74538;43.522;1.516;2024-01-16T12:51:12;2.85;;;1.52;;
84353;SDS011;74538;43.522;1.516;2024-01-16T12:53:45;2.95;;;1.33;;
84353;SDS011;74538;43.522;1.516;2024-01-16T12:56:10;3.07;;;1.20;;
84353;SDS011;74538;43.522;1.516;2024-01-16T12:58:38;2.67;;;1.27;;
84353;SDS011;74538;43.522;1.516;2024-01-16T13:01:23;2.50;;;1.20;;
84353;SDS011;74538;43.522;1.516;2024-01-16T13:03:53;3.50;;;1.50;;
84353;SDS011;74538;43.522;1.516;2024-01-16T13:06:21;3.40;;;1.33;;
84353;SDS011;74538;43.522;1.516;2024-01-16T13:08:48;2.90;;;1.27;;
84353;SDS011;74538;43.522;1.516;2024-01-16T13:11:15;3.33;;;1.58;;
84353;SDS011;74538;43.522;1.516;2024-01-16T13:13:45;3.03;;;1.35;;
84353;SDS011;74538;43.522;1.516;2024-01-16T13:16:12;3.13;;;1.20;;
84353;SDS011;74538;43.522;1.516;2024-01-16T13:18:38;2.50;;;1.20;;
84353;SDS011;74538;43.522;1.516;2024-01-16T13:21:03;2.83;;;1.30;;
84353;SDS011;74538;43.522;1.516;2024-01-16T13:23:29;3.38;;;0.93;;
84353;SDS011;74538;43.522;1.516;2024-01-16T13:25:55;2.57;;;1.10;;
84353;SDS011;74538;43.522;1.516;2024-01-16T13:28:22;2.85;;;1.35;;
84353;SDS011;74538;43.522;1.516;2024-01-16T13:30:48;2.50;;;1.17;;
84353;SDS011;74538;43.522;1.516;2024-01-16T13:33:14;3.45;;;1.25;;
84353;SDS011;74538;43.522;1.516;2024-01-16T13:35:42;2.60;;;1.10;;
84353;SDS011;74538;43.522;1.516;2024-01-16T13:38:09;2.60;;;1.20;;
84353;SDS011;74538;43.522;1.516;2024-01-16T13:40:35;2.80;;;1.25;;
84353;SDS011;74538;43.522;1.516;2024-01-16T13:43:02;2.40;;;1.30;;
84353;SDS011;74538;43.522;1.516;2024-01-16T13:45:28;3.30;;;1.40;;
84353;SDS011;74538;43.522;1.516;2024-01-16T13:47:54;2.83;;;1.50;;
84353;SDS011;74538;43.522;1.516;2024-01-16T13:50:20;4.00;;;1.00;;
84353;SDS011;74538;43.522;1.516;2024-01-16T13:52:46;2.40;;;1.10;;
84353;SDS011;74538;43.522;1.516;2024-01-16T13:55:11;3.35;;;1.30;;
84353;SDS011;74538;43.522;1.516;2024-01-16T13:57:37;2.83;;;1.23;;
84353;SDS011;74538;43.522;1.516;2024-01-16T14:00:06;2.40;;;1.10;;
84353;SDS011;74538;43.522;1.516;2024-01-16T14:02:38;3.10;;;1.27;;
84353;SDS011;74538;43.522;1.516;2024-01-16T14:05:10;2.90;;;1.25;;
84353;SDS011;74538;43.522;1.516;2024-01-16T14:07:37;2.40;;;1.10;;
84353;SDS011;74538;43.522;1.516;2024-01-16T14:10:04;2.85;;;0.90;;
84353;SDS011;74538;43.522;1.516;2024-01-16T14:12:35;2.90;;;1.20;;
84353;SDS011;74538;43.522;1.516;2024-01-16T14:15:00;3.70;;;1.30;;
84353;SDS011;74538;43.522;1.516;2024-01-16T14:17:29;2.90;;;1.30;;
84353;SDS011;74538;43.522;1.516;2024-01-16T14:19:55;2.63;;;1.20;;
84353;SDS011;74538;43.522;1.516;2024-01-16T14:22:20;3.37;;;1.67;;
84353;SDS011;74538;43.522;1.516;2024-01-16T14:24:46;3.67;;;1.20;;
84353;SDS011;74538;43.522;1.516;2024-01-16T14:27:12;3.47;;;0.90;;
84353;SDS011;74538;43.522;1.516;2024-01-16T14:29:39;2.80;;;0.90;;
84353;SDS011;74538;43.522;1.516;2024-01-16T14:32:04;3.37;;;1.30;;
84353;SDS011;74538;43.522;1.516;2024-01-16T14:34:30;2.95;;;1.13;;
84353;SDS011;74538;43.522;1.516;2024-01-16T14:36:56;2.80;;;1.10;;
84353;SDS011;74538;43.522;1.516;2024-01-16T14:39:21;2.47;;;1.00;;
84353;SDS011;74538;43.522;1.516;2024-01-16T14:41:49;2.63;;;1.03;;
84353;SDS011;74538;43.522;1.516;2024-01-16T14:44:16;2.97;;;1.13;;
84353;SDS011;74538;43.522;1.516;2024-01-16T14:46:41;2.90;;;1.20;;
84353;SDS011;74538;43.522;1.516;2024-01-16T14:49:09;2.95;;;1.10;;
84353;SDS011;74538;43.522;1.516;2024-01-16T14:51:35;5.50;;;1.40;;
84353;SDS011;74538;43.522;1.516;2024-01-16T14:54:00;2.70;;;1.17;;
84353;SDS011;74538;43.522;1.516;2024-01-16T14:56:30;2.60;;;0.90;;
84353;SDS011;74538;43.522;1.516;2024-01-16T14:58:56;2.90;;;1.30;;